Time;durP1;ratioP1;P1;durP2;ratioP2;P2;SDS_P1;SDS_P2;PMS_P1;PMS_P2;Temp;Humidity;BMP_temperature;BMP_pressure;BME280_temperature;BME280_humidity;BME280_pressure;Samples;Min_cycle;Max_cycle;Signal;HPM_P1;HPM_P2
2021/11/20 00:00:18;;;;;;;14.97;5.93;;;11.70;98.30;;;;;;5071021;23;20790;-79
2021/11/20 00:02:24;;;;;;;19.00;5.63;;;11.70;98.30;;;;;;5079965;23;20487;-80
2021/11/20 00:04:28;;;;;;;12.30;5.80;;;11.60;98.30;;;;;;5071267;23;20459;-79
2021/11/20 00:06:35;;;;;;;16.23;5.87;;;11.70;98.30;;;;;;5071556;23;20932;-80
2021/11/20 00:08:37;;;;;;;19.13;6.20;;;11.60;98.30;;;;;;5072133;23;20476;-79
2021/11/20 00:10:45;;;;;;;21.37;6.30;;;11.60;98.30;;;;;;5071787;23;20460;-80
2021/11/20 00:12:50;;;;;;;16.50;5.40;;;11.60;98.30;;;;;;5079814;23;20529;-79
2021/11/20 00:14:54;;;;;;;17.77;6.47;;;11.60;98.30;;;;;;5071288;23;20931;-79
2021/11/20 00:17:00;;;;;;;16.70;6.20;;;11.60;98.30;;;;;;5070728;23;20933;-79
2021/11/20 00:19:03;;;;;;;16.20;5.23;;;11.60;98.30;;;;;;5070055;23;20470;-79
2021/11/20 00:21:13;;;;;;;10.00;5.30;;;11.60;98.30;;;;;;5070970;23;20817;-79
2021/11/20 00:23:18;;;;;;;12.07;5.40;;;11.50;98.30;;;;;;5070339;23;20536;-79
2021/11/20 00:25:24;;;;;;;17.13;5.60;;;11.60;98.30;;;;;;5070681;23;20440;-79
2021/11/20 00:27:33;;;;;;;14.10;4.47;;;11.60;98.30;;;;;;5079223;23;20431;-79
2021/11/20 00:29:44;;;;;;;10.00;5.03;;;11.60;98.30;;;;;;5071154;23;20431;-79
2021/11/20 00:31:50;;;;;;;10.63;4.90;;;11.60;98.30;;;;;;5071548;23;20423;-79
2021/11/20 00:33:54;;;;;;;14.17;6.03;;;11.50;98.30;;;;;;5079844;23;20423;-80
2021/11/20 00:35:59;;;;;;;12.07;4.93;;;11.50;98.30;;;;;;5079778;23;20529;-79
2021/11/20 00:38:03;;;;;;;15.97;5.50;;;11.50;98.30;;;;;;5080595;23;20434;-80
2021/11/20 00:40:09;;;;;;;9.03;4.80;;;11.50;98.30;;;;;;5072374;23;20519;-80
2021/11/20 00:42:13;;;;;;;15.03;4.70;;;11.60;98.30;;;;;;5085263;23;20408;-79
2021/11/20 00:44:21;;;;;;;11.47;5.83;;;11.60;98.30;;;;;;5072486;23;20486;-79
2021/11/20 00:46:29;;;;;;;10.17;5.10;;;11.50;98.30;;;;;;5080966;23;20474;-80
2021/11/20 00:48:33;;;;;;;12.47;4.20;;;11.50;98.30;;;;;;5072479;23;20423;-80
2021/11/20 00:50:37;;;;;;;13.20;5.00;;;11.50;98.30;;;;;;5080307;23;20455;-80
2021/11/20 00:52:40;;;;;;;15.30;5.37;;;11.50;98.30;;;;;;5072094;23;20445;-80
2021/11/20 00:54:43;;;;;;;21.20;6.30;;;11.50;98.30;;;;;;5072293;23;20432;-80
2021/11/20 00:56:47;;;;;;;14.10;4.60;;;11.50;98.30;;;;;;5078693;23;20432;-79
2021/11/20 00:58:50;;;;;;;12.03;4.80;;;11.50;98.30;;;;;;5071231;23;20463;-79
2021/11/20 01:00:56;;;;;;;10.40;4.50;;;11.50;98.30;;;;;;5070471;23;20515;-79
2021/11/20 01:03:00;;;;;;;10.87;4.63;;;11.50;98.30;;;;;;5070411;23;20728;-79
2021/11/20 01:05:07;;;;;;;12.50;4.80;;;11.50;98.30;;;;;;5070356;23;20456;-79
2021/11/20 01:07:11;;;;;;;12.80;4.43;;;11.60;98.30;;;;;;5070783;23;20939;-79
2021/11/20 01:09:17;;;;;;;8.53;4.07;;;11.60;98.30;;;;;;5072220;23;20814;-80
2021/11/20 01:11:23;;;;;;;8.20;4.47;;;11.60;98.30;;;;;;5072502;23;20541;-80
2021/11/20 01:13:26;;;;;;;14.60;4.53;;;11.60;98.30;;;;;;5071581;23;20502;-80
2021/11/20 01:15:33;;;;;;;9.23;4.47;;;11.60;98.30;;;;;;5071929;23;20431;-80
2021/11/20 01:17:36;;;;;;;15.53;4.30;;;11.60;98.30;;;;;;5079596;23;20413;-80
2021/11/20 01:19:41;;;;;;;10.90;4.30;;;11.60;98.30;;;;;;5079523;23;20424;-81
2021/11/20 01:21:45;;;;;;;13.10;4.60;;;11.60;98.30;;;;;;5071855;23;20432;-80
2021/11/20 01:23:49;;;;;;;12.07;5.77;;;11.60;98.30;;;;;;5071707;23;20441;-80
2021/11/20 01:25:53;;;;;;;13.13;5.53;;;11.60;98.30;;;;;;5080223;23;20459;-80
2021/11/20 01:27:56;;;;;;;9.33;4.47;;;11.50;98.30;;;;;;5072281;23;20559;-80
2021/11/20 01:29:59;;;;;;;9.50;4.63;;;11.60;98.30;;;;;;5071346;23;20494;-80
2021/11/20 01:32:02;;;;;;;10.50;4.63;;;11.50;98.30;;;;;;5071946;23;20466;-80
2021/11/20 01:34:07;;;;;;;11.90;4.40;;;11.50;98.30;;;;;;5079903;23;20906;-80
2021/11/20 01:36:12;;;;;;;7.63;5.03;;;11.50;98.30;;;;;;5070409;23;20494;-79
2021/11/20 01:38:16;;;;;;;10.37;4.10;;;11.50;98.30;;;;;;5070865;23;20420;-79
2021/11/20 01:40:22;;;;;;;14.43;5.23;;;11.50;98.30;;;;;;5077137;23;20440;-79
2021/11/20 01:42:29;;;;;;;10.60;5.10;;;11.50;98.30;;;;;;5069223;23;20818;-79
2021/11/20 01:44:34;;;;;;;12.83;6.13;;;11.50;98.30;;;;;;5069949;23;20511;-79
2021/11/20 01:46:41;;;;;;;12.83;5.40;;;11.50;98.30;;;;;;5069791;23;20439;-79
2021/11/20 01:48:59;;;;;;;16.17;5.60;;;11.50;98.30;;;;;;5070337;23;20893;-80
2021/11/20 01:51:08;;;;;;;7.10;5.33;;;11.50;98.30;;;;;;5068657;23;20466;-80
2021/11/20 01:53:15;;;;;;;12.13;6.10;;;11.50;98.30;;;;;;5069853;23;20489;-79
2021/11/20 01:55:34;;;;;;;12.07;5.80;;;11.50;98.30;;;;;;5077413;23;20462;-79
2021/11/20 01:57:43;;;;;;;12.50;6.73;;;11.50;98.30;;;;;;5069260;23;20459;-79
2021/11/20 01:59:51;;;;;;;16.47;6.40;;;11.50;98.30;;;;;;5069351;23;20419;-79
2021/11/20 02:02:03;;;;;;;11.10;6.60;;;11.50;98.30;;;;;;5069492;23;20435;-80
2021/11/20 02:06:30;;;;;;;12.83;6.10;;;11.50;98.30;;;;;;5084147;23;20471;-82
2021/11/20 02:08:40;;;;;;;16.17;6.63;;;11.40;98.30;;;;;;5083805;23;20931;-81
2021/11/20 02:10:47;;;;;;;16.93;6.77;;;11.40;98.30;;;;;;5074801;23;20500;-84
2021/11/20 02:12:55;;;;;;;15.57;6.93;;;11.50;98.30;;;;;;5083922;23;20936;-82
2021/11/20 02:14:59;;;;;;;17.50;7.40;;;11.50;98.30;;;;;;5084432;23;20416;-84
2021/11/20 02:17:06;;;;;;;11.30;6.63;;;11.50;98.30;;;;;;5084438;23;20414;-84
2021/11/20 02:19:15;;;;;;;16.00;6.93;;;11.50;98.30;;;;;;5084496;23;20415;-84
2021/11/20 02:21:34;;;;;;;15.23;7.40;;;11.40;98.30;;;;;;5085044;23;20455;-83
2021/11/20 02:23:36;;;;;;;14.00;8.23;;;11.40;98.30;;;;;;5084258;23;20479;-85
2021/11/20 02:25:39;;;;;;;14.17;7.60;;;11.40;98.30;;;;;;5084544;23;20448;-84
2021/11/20 02:27:47;;;;;;;16.23;7.87;;;11.40;98.30;;;;;;5076079;23;20428;-84
2021/11/20 02:29:49;;;;;;;13.37;7.63;;;11.40;98.30;;;;;;5084845;23;20428;-84
2021/11/20 02:31:56;;;;;;;15.50;6.60;;;11.40;98.30;;;;;;5083180;23;20431;-83
2021/11/20 02:34:00;;;;;;;15.07;7.10;;;11.40;98.30;;;;;;5083173;23;20470;-83
2021/11/20 02:36:05;;;;;;;14.87;8.03;;;11.40;98.30;;;;;;5084869;23;20420;-84
2021/11/20 02:38:11;;;;;;;13.40;7.63;;;11.40;98.30;;;;;;5084233;23;20506;-81
2021/11/20 02:40:16;;;;;;;24.50;8.63;;;11.40;98.30;;;;;;5083984;23;20927;-82
2021/11/20 02:42:23;;;;;;;20.03;7.47;;;11.40;98.30;;;;;;5084001;23;20427;-83
2021/11/20 02:44:27;;;;;;;18.63;7.70;;;11.40;98.30;;;;;;5076977;23;20454;-83
2021/11/20 02:46:36;;;;;;;19.17;6.60;;;11.40;98.30;;;;;;5076463;23;20455;-84
2021/11/20 02:48:40;;;;;;;18.37;6.60;;;11.40;98.30;;;;;;5075827;23;20732;-84
2021/11/20 02:50:47;;;;;;;12.93;6.80;;;11.40;98.30;;;;;;5076020;23;20463;-84
2021/11/20 02:52:50;;;;;;;16.07;7.47;;;11.40;98.30;;;;;;5083664;23;20470;-82
2021/11/20 02:54:54;;;;;;;13.83;5.87;;;11.40;98.30;;;;;;5084061;23;20758;-83
2021/11/20 02:57:00;;;;;;;15.10;6.87;;;11.40;98.30;;;;;;5076496;23;20442;-83
2021/11/20 02:59:07;;;;;;;10.50;6.00;;;11.40;98.30;;;;;;5083485;23;20514;-82
2021/11/20 03:01:13;;;;;;;15.13;7.30;;;11.40;98.30;;;;;;5078212;23;20457;-83
2021/11/20 03:03:16;;;;;;;11.70;7.03;;;11.40;98.30;;;;;;5085639;23;20447;-83
2021/11/20 03:05:21;;;;;;;11.00;7.30;;;11.40;98.30;;;;;;5083997;23;20454;-83
2021/11/20 03:07:24;;;;;;;15.60;7.30;;;11.40;98.30;;;;;;5077033;23;20428;-82
2021/11/20 03:09:29;;;;;;;17.70;7.10;;;11.40;98.30;;;;;;5076469;23;20527;-81
2021/11/20 03:11:33;;;;;;;21.50;6.43;;;11.40;98.30;;;;;;5076719;23;20947;-83
2021/11/20 03:13:36;;;;;;;22.20;7.97;;;11.40;98.30;;;;;;5083816;23;20534;-83
2021/11/20 03:15:39;;;;;;;22.33;8.30;;;11.40;98.30;;;;;;5076851;23;20495;-82
2021/11/20 03:17:42;;;;;;;21.43;7.20;;;11.40;98.30;;;;;;5084545;23;20489;-83
2021/11/20 03:19:47;;;;;;;15.83;8.10;;;11.40;98.30;;;;;;5085775;23;20443;-83
2021/11/20 03:21:54;;;;;;;12.50;7.23;;;11.40;98.30;;;;;;5078141;23;20434;-82
2021/11/20 03:24:01;;;;;;;22.83;7.03;;;11.40;98.30;;;;;;5076419;23;20453;-83
2021/11/20 03:26:04;;;;;;;15.60;6.43;;;11.50;98.30;;;;;;5083943;23;20482;-82
2021/11/20 03:28:08;;;;;;;15.97;6.80;;;11.50;98.30;;;;;;5076579;23;20511;-82
2021/11/20 03:30:12;;;;;;;16.30;7.00;;;11.50;98.30;;;;;;5076501;23;21000;-82
2021/11/20 03:32:16;;;;;;;18.97;7.03;;;11.50;98.30;;;;;;5077478;23;20443;-82
2021/11/20 03:34:20;;;;;;;17.20;7.10;;;11.50;98.30;;;;;;5084954;23;20481;-82
2021/11/20 03:36:23;;;;;;;18.97;7.37;;;11.50;98.30;;;;;;5084698;23;20510;-83
2021/11/20 03:38:28;;;;;;;14.60;6.67;;;11.50;98.30;;;;;;5077574;23;20434;-83
2021/11/20 03:40:31;;;;;;;12.70;6.97;;;11.50;98.30;;;;;;5085204;23;20423;-83
2021/11/20 03:42:34;;;;;;;17.00;7.60;;;11.50;98.30;;;;;;5077772;23;20459;-82
2021/11/20 03:44:37;;;;;;;14.53;7.70;;;11.50;98.30;;;;;;5084985;23;20491;-83
2021/11/20 03:46:41;;;;;;;16.70;7.43;;;11.50;98.30;;;;;;5085103;23;20447;-82
2021/11/20 03:48:44;;;;;;;14.80;8.17;;;11.50;98.30;;;;;;5077278;23;20520;-81
2021/11/20 03:50:49;;;;;;;15.87;7.83;;;11.50;98.30;;;;;;5077862;23;20514;-83
2021/11/20 03:52:53;;;;;;;20.30;10.27;;;11.50;98.30;;;;;;5085823;23;20539;-82
2021/11/20 03:54:57;;;;;;;21.63;8.77;;;11.50;98.30;;;;;;5078503;23;20444;-83
2021/11/20 03:57:00;;;;;;;16.47;8.53;;;11.50;98.30;;;;;;5085899;23;20424;-83
2021/11/20 03:59:04;;;;;;;17.10;9.40;;;11.50;98.30;;;;;;5087954;23;20474;-82
2021/11/20 04:01:10;;;;;;;27.20;10.50;;;11.50;98.30;;;;;;5086921;23;20522;-82
2021/11/20 04:03:20;;;;;;;17.03;8.43;;;11.50;98.30;;;;;;5088532;23;20514;-83
2021/11/20 04:05:25;;;;;;;20.20;9.40;;;11.50;98.30;;;;;;5087265;23;20442;-81
2021/11/20 04:07:28;;;;;;;23.23;10.10;;;11.50;98.30;;;;;;5087748;23;20453;-82
2021/11/20 04:09:31;;;;;;;23.07;11.53;;;11.50;98.30;;;;;;5088824;23;20455;-83
2021/11/20 04:11:35;;;;;;;22.67;10.00;;;11.40;98.30;;;;;;5088329;23;20462;-81
2021/11/20 04:13:40;;;;;;;18.10;9.33;;;11.50;98.30;;;;;;5088895;23;20454;-81
2021/11/20 04:15:44;;;;;;;18.80;9.97;;;11.40;98.30;;;;;;5086664;23;20423;-83
2021/11/20 04:17:47;;;;;;;27.23;11.10;;;11.40;98.30;;;;;;5085804;23;20458;-80
2021/11/20 04:19:50;;;;;;;21.40;9.90;;;11.40;98.30;;;;;;5079081;23;20438;-83
2021/11/20 04:21:53;;;;;;;20.87;11.07;;;11.40;98.30;;;;;;5088114;23;20764;-82
2021/11/20 04:23:58;;;;;;;28.57;10.37;;;11.40;98.30;;;;;;5078797;23;20453;-83
2021/11/20 04:26:03;;;;;;;20.67;10.17;;;11.40;98.30;;;;;;5079615;23;20475;-84
2021/11/20 04:28:08;;;;;;;25.80;15.50;;;11.40;98.30;;;;;;5078040;23;20882;-83
2021/11/20 04:30:14;;;;;;;24.70;9.37;;;11.40;98.30;;;;;;5085529;23;20451;-83
2021/11/20 04:32:17;;;;;;;20.97;9.73;;;11.40;98.30;;;;;;5078010;23;20510;-82
2021/11/20 04:34:21;;;;;;;18.13;8.37;;;11.50;98.30;;;;;;5085794;23;20496;-81
2021/11/20 04:36:25;;;;;;;27.40;10.20;;;11.40;98.30;;;;;;5086454;23;20526;-83
2021/11/20 04:38:28;;;;;;;22.77;8.70;;;11.40;98.30;;;;;;5077030;23;21023;-83
2021/11/20 04:40:31;;;;;;;12.53;8.00;;;11.40;98.30;;;;;;5084520;23;20519;-82
2021/11/20 04:42:34;;;;;;;24.17;8.57;;;11.40;98.30;;;;;;5086561;23;20424;-82
2021/11/20 04:44:40;;;;;;;16.10;9.23;;;11.40;98.30;;;;;;5085203;23;20439;-83
2021/11/20 04:46:43;;;;;;;20.10;8.50;;;11.40;98.30;;;;;;5078377;23;20574;-81
2021/11/20 04:48:46;;;;;;;20.20;8.57;;;11.40;98.30;;;;;;5078082;23;20439;-82
2021/11/20 04:50:54;;;;;;;15.70;9.20;;;11.40;98.30;;;;;;5086829;23;20439;-82
2021/11/20 04:53:00;;;;;;;22.47;8.43;;;11.40;98.30;;;;;;5086992;23;20493;-82
2021/11/20 04:55:04;;;;;;;17.23;8.57;;;11.40;98.30;;;;;;5088009;23;20450;-83
2021/11/20 04:57:08;;;;;;;15.60;8.63;;;11.40;98.30;;;;;;5086169;23;20424;-83
2021/11/20 04:59:11;;;;;;;21.27;9.17;;;11.40;98.30;;;;;;5077577;23;20770;-82
2021/11/20 05:01:17;;;;;;;16.23;9.50;;;11.40;98.30;;;;;;5086977;23;20506;-83
2021/11/20 05:03:21;;;;;;;21.93;10.80;;;11.40;98.30;;;;;;5087312;23;20526;-82
2021/11/20 05:05:25;;;;;;;20.37;9.73;;;11.40;98.30;;;;;;5087683;23;20427;-81
2021/11/20 05:07:28;;;;;;;25.30;9.80;;;11.40;98.30;;;;;;5079836;23;20451;-84
2021/11/20 05:09:32;;;;;;;18.80;9.00;;;11.40;98.30;;;;;;5080246;23;20431;-82
2021/11/20 05:11:35;;;;;;;25.90;10.67;;;11.40;98.30;;;;;;5090351;23;20498;-82
2021/11/20 05:13:38;;;;;;;23.83;10.90;;;11.40;98.30;;;;;;5090346;23;20526;-83
2021/11/20 05:15:43;;;;;;;26.83;11.60;;;11.40;98.30;;;;;;5090313;23;20441;-83
2021/11/20 05:17:48;;;;;;;26.07;12.27;;;11.40;98.30;;;;;;5089430;23;20506;-81
2021/11/20 05:19:51;;;;;;;23.13;11.30;;;11.40;98.30;;;;;;5085679;23;20454;-83
2021/11/20 05:21:56;;;;;;;34.60;13.67;;;11.40;98.30;;;;;;5083380;23;20435;-83
2021/11/20 05:24:01;;;;;;;28.27;12.80;;;11.40;98.30;;;;;;5084373;23;20446;-82
2021/11/20 05:26:06;;;;;;;24.33;12.77;;;11.40;98.30;;;;;;5076406;23;20530;-82
2021/11/20 05:28:09;;;;;;;27.43;13.87;;;11.40;98.30;;;;;;5076985;23;20470;-81
2021/11/20 05:30:16;;;;;;;26.10;13.60;;;11.40;98.30;;;;;;5085040;23;20523;-82
2021/11/20 05:32:20;;;;;;;25.10;12.30;;;11.40;98.30;;;;;;5077538;23;20423;-80
2021/11/20 05:34:24;;;;;;;25.80;11.93;;;11.40;98.30;;;;;;5078160;23;20501;-82
2021/11/20 05:36:30;;;;;;;28.20;13.63;;;11.40;98.30;;;;;;5084526;23;21135;-82
2021/11/20 05:38:34;;;;;;;20.40;12.97;;;11.40;98.30;;;;;;5077512;23;20520;-81
2021/11/20 05:40:38;;;;;;;25.07;12.50;;;11.30;98.30;;;;;;5084988;23;20426;-82
2021/11/20 05:42:42;;;;;;;21.67;12.10;;;11.40;98.30;;;;;;5085242;23;20443;-82
2021/11/20 05:44:45;;;;;;;29.87;12.70;;;11.40;98.30;;;;;;5075957;23;20840;-80
2021/11/20 05:46:48;;;;;;;21.23;11.87;;;11.40;98.30;;;;;;5084795;23;20514;-82
2021/11/20 05:48:51;;;;;;;36.67;14.80;;;11.40;98.30;;;;;;5076813;23;20441;-81
2021/11/20 05:50:56;;;;;;;22.30;12.57;;;11.40;98.30;;;;;;5084007;23;20434;-83
2021/11/20 05:53:02;;;;;;;22.67;11.60;;;11.30;98.30;;;;;;5083373;23;20776;-83
2021/11/20 05:55:10;;;;;;;28.33;12.50;;;11.40;98.30;;;;;;5082516;23;20526;-82
2021/11/20 05:57:13;;;;;;;22.47;11.27;;;11.40;98.30;;;;;;5074360;23;20431;-82
2021/11/20 05:59:16;;;;;;;26.50;13.37;;;11.40;98.30;;;;;;5074783;23;20435;-82
2021/11/20 06:01:19;;;;;;;25.37;12.73;;;11.40;98.30;;;;;;5074886;23;20435;-83
2021/11/20 06:03:23;;;;;;;26.20;12.37;;;11.40;98.30;;;;;;5077036;23;20988;-82
2021/11/20 06:05:34;;;;;;;31.97;14.87;;;11.40;98.30;;;;;;5085833;23;20407;-82
2021/11/20 06:07:38;;;;;;;30.27;13.70;;;11.40;98.30;;;;;;5085899;23;20506;-80
2021/11/20 06:09:42;;;;;;;22.60;12.73;;;11.40;98.30;;;;;;5077969;23;20465;-82
2021/11/20 06:11:45;;;;;;;23.30;11.57;;;11.40;98.30;;;;;;5086776;23;20448;-82
2021/11/20 06:13:48;;;;;;;24.90;12.60;;;11.40;98.30;;;;;;5086646;23;20452;-83
2021/11/20 06:15:53;;;;;;;19.50;11.30;;;11.40;98.30;;;;;;5086613;23;20430;-83
2021/11/20 06:17:56;;;;;;;21.73;11.23;;;11.40;98.30;;;;;;5086978;23;21042;-81
2021/11/20 06:19:59;;;;;;;19.07;12.50;;;11.40;98.30;;;;;;5087456;23;20427;-83
2021/11/20 06:22:02;;;;;;;16.40;10.23;;;11.40;98.30;;;;;;5077694;23;20436;-82
2021/11/20 06:24:07;;;;;;;18.37;12.20;;;11.40;98.30;;;;;;5076324;23;20486;-81
2021/11/20 06:26:11;;;;;;;21.53;12.10;;;11.40;98.30;;;;;;5085811;23;20443;-81
2021/11/20 06:28:14;;;;;;;21.77;11.43;;;11.40;98.30;;;;;;5076260;23;20900;-83
2021/11/20 06:30:24;;;;;;;16.83;10.53;;;11.40;98.30;;;;;;5085115;23;20435;-82
2021/11/20 06:32:30;;;;;;;18.13;11.57;;;11.30;98.30;;;;;;5084792;23;20998;-83
2021/11/20 06:34:32;;;;;;;17.13;12.00;;;11.40;98.30;;;;;;5084648;23;20431;-83
2021/11/20 06:36:35;;;;;;;21.47;10.90;;;11.40;98.30;;;;;;5083850;23;20513;-83
2021/11/20 06:38:40;;;;;;;16.40;10.10;;;11.30;98.30;;;;;;5083245;23;20433;-83
2021/11/20 06:40:47;;;;;;;16.13;10.60;;;11.30;98.30;;;;;;5076041;23;20457;-82
2021/11/20 06:42:50;;;;;;;21.17;11.80;;;11.30;98.30;;;;;;5075579;23;20464;-82
2021/11/20 06:44:53;;;;;;;27.90;12.30;;;11.30;98.30;;;;;;5074997;23;20437;-83
2021/11/20 06:46:56;;;;;;;19.10;10.90;;;11.40;98.30;;;;;;5084053;23;20458;-82
2021/11/20 06:48:59;;;;;;;17.10;9.20;;;11.40;98.30;;;;;;5083689;23;20454;-82
2021/11/20 06:51:04;;;;;;;24.10;12.23;;;11.40;98.30;;;;;;5084822;23;20421;-83
2021/11/20 06:53:10;;;;;;;19.80;10.50;;;11.40;98.30;;;;;;5077688;23;20533;-83
2021/11/20 06:55:15;;;;;;;20.53;11.30;;;11.30;98.30;;;;;;5085153;23;20431;-82
2021/11/20 06:57:47;;;;;;;14.37;9.30;;;11.30;98.30;;;;;;5077246;23;20438;-83
2021/11/20 07:02:15;;;;;;;22.50;10.70;;;11.30;98.30;;;;;;5085716;23;20446;-83
2021/11/20 07:04:22;;;;;;;21.20;12.70;;;11.30;98.30;;;;;;5078387;23;20474;-84
2021/11/20 07:06:28;;;;;;;15.07;10.47;;;11.30;98.30;;;;;;5085701;23;20459;-82
2021/11/20 07:08:31;;;;;;;15.93;9.73;;;11.30;98.30;;;;;;5085413;23;20726;-84
2021/11/20 07:10:34;;;;;;;19.70;11.57;;;11.30;98.30;;;;;;5076376;23;20838;-83
2021/11/20 07:12:39;;;;;;;21.53;11.53;;;11.30;98.30;;;;;;5084224;23;20423;-82
2021/11/20 07:14:42;;;;;;;26.97;11.50;;;11.30;98.30;;;;;;5086366;23;20450;-83
2021/11/20 07:16:46;;;;;;;18.67;11.00;;;11.30;98.30;;;;;;5077714;23;20823;-83
2021/11/20 07:18:52;;;;;;;19.53;11.60;;;11.30;98.30;;;;;;5077867;23;20422;-82
2021/11/20 07:20:55;;;;;;;20.20;10.70;;;11.30;98.30;;;;;;5087181;23;20458;-82
2021/11/20 07:22:59;;;;;;;21.10;12.63;;;11.40;98.30;;;;;;5087789;23;20451;-83
2021/11/20 07:25:01;;;;;;;24.93;11.37;;;11.30;98.30;;;;;;5084620;23;20428;-83
2021/11/20 07:27:10;;;;;;;18.97;12.23;;;11.30;98.30;;;;;;5085960;23;20435;-83
2021/11/20 07:29:15;;;;;;;18.40;11.60;;;11.30;98.30;;;;;;5084118;23;20965;-84
2021/11/20 07:31:18;;;;;;;23.13;13.17;;;11.40;98.30;;;;;;5077079;23;20439;-83
2021/11/20 07:33:22;;;;;;;18.37;12.17;;;11.40;98.30;;;;;;5086746;23;20767;-82
2021/11/20 07:35:29;;;;;;;24.07;10.83;;;11.40;98.30;;;;;;5078713;23;20431;-84
2021/11/20 07:37:32;;;;;;;23.63;12.23;;;11.30;98.30;;;;;;5086550;23;20443;-83
2021/11/20 07:39:36;;;;;;;25.33;11.47;;;11.30;98.30;;;;;;5086738;23;20424;-82
2021/11/20 07:41:39;;;;;;;21.10;11.10;;;11.30;98.30;;;;;;5087119;23;20431;-83
2021/11/20 07:43:42;;;;;;;21.90;12.07;;;11.30;98.30;;;;;;5086219;23;20470;-83
2021/11/20 07:45:47;;;;;;;19.40;10.73;;;11.30;98.30;;;;;;5076887;23;20446;-83
2021/11/20 07:47:50;;;;;;;20.20;12.23;;;11.30;98.30;;;;;;5087672;23;20419;-84
2021/11/20 07:49:52;;;;;;;29.47;12.00;;;11.30;98.30;;;;;;5077785;23;20431;-84
2021/11/20 07:51:55;;;;;;;23.30;12.17;;;11.30;98.30;;;;;;5087419;23;20423;-82
2021/11/20 07:53:59;;;;;;;20.77;12.93;;;11.30;98.30;;;;;;5086913;23;20440;-84
2021/11/20 07:56:03;;;;;;;23.37;12.30;;;11.30;98.30;;;;;;5078902;23;20837;-82
2021/11/20 07:58:08;;;;;;;24.57;13.03;;;11.30;98.30;;;;;;5087984;23;20943;-81
2021/11/20 08:00:20;;;;;;;24.13;12.90;;;11.30;98.30;;;;;;5089312;23;20926;-82
2021/11/20 08:02:24;;;;;;;21.43;12.63;;;11.40;98.30;;;;;;5079861;23;20970;-82
2021/11/20 09:15:22;;;;;;;18.63;10.47;;;11.60;98.30;;;;;;5077970;23;20523;-82
2021/11/20 09:17:27;;;;;;;21.70;11.53;;;11.60;98.30;;;;;;5128151;23;20449;-83
2021/11/20 09:19:38;;;;;;;18.30;10.80;;;11.60;98.30;;;;;;5127427;23;20429;-83
2021/11/20 09:21:44;;;;;;;16.87;11.60;;;11.60;98.30;;;;;;5127311;23;20906;-82
2021/11/20 09:23:50;;;;;;;18.50;9.17;;;11.60;98.30;;;;;;5125491;23;20772;-85
2021/11/20 09:25:55;;;;;;;13.03;9.30;;;11.70;98.30;;;;;;5128382;23;20428;-85
2021/11/20 09:47:17;;;;;;;12.93;7.93;;;11.70;98.30;;;;;;5079714;23;20536;-83
2021/11/20 13:10:01;;;;;;;18.07;12.50;;;11.50;98.30;;;;;;4819253;24;21005;-82
2021/11/20 14:13:17;;;;;;;17.23;12.77;;;11.10;98.30;;;;;;4844436;24;21050;-81
2021/11/20 14:19:40;;;;;;;20.13;13.47;;;11.00;98.30;;;;;;4832026;24;20433;-82
2021/11/20 14:25:52;;;;;;;17.20;12.70;;;11.00;98.30;;;;;;4973515;23;20430;-82
2021/11/20 14:31:25;;;;;;;22.93;15.50;;;10.90;98.30;;;;;;5017844;23;20436;-82
2021/11/20 14:34:13;;;;;;;23.63;16.63;;;10.80;98.30;;;;;;5060592;23;20496;-82
2021/11/20 14:36:33;;;;;;;27.00;17.30;;;10.80;98.30;;;;;;5053273;23;20950;-82
2021/11/20 14:39:02;;;;;;;29.17;20.87;;;10.80;98.30;;;;;;5076281;23;20428;-82
2021/11/20 14:41:14;;;;;;;23.77;16.73;;;10.70;98.30;;;;;;5099773;23;20440;-82
2021/11/20 14:43:33;;;;;;;25.77;18.17;;;10.70;98.30;;;;;;5095847;23;20428;-82
2021/11/20 14:46:29;;;;;;;27.87;17.10;;;10.70;98.30;;;;;;5107284;23;20447;-82
2021/11/20 14:48:39;;;;;;;37.33;17.67;;;10.60;98.30;;;;;;5108919;23;20435;-83
2021/11/20 14:50:51;;;;;;;27.53;18.13;;;10.60;98.30;;;;;;5108239;23;20503;-82
2021/11/20 14:53:02;;;;;;;30.20;18.50;;;10.60;98.30;;;;;;5109789;23;20431;-82
2021/11/20 14:55:10;;;;;;;30.70;19.43;;;10.50;98.30;;;;;;5108698;23;20439;-82
2021/11/20 14:57:16;;;;;;;32.40;20.53;;;10.60;98.30;;;;;;5109092;23;20452;-82
2021/11/20 14:59:26;;;;;;;33.10;20.97;;;10.60;98.30;;;;;;5109888;23;20455;-82
2021/11/20 15:01:33;;;;;;;32.73;20.07;;;10.60;98.30;;;;;;5108238;23;20463;-82
2021/11/20 15:03:42;;;;;;;30.70;16.37;;;10.50;98.30;;;;;;5096612;23;20453;-83
2021/11/20 15:05:48;;;;;;;30.73;19.10;;;10.50;98.30;;;;;;5104343;23;20439;-82
2021/11/20 15:08:02;;;;;;;24.40;16.63;;;10.50;98.30;;;;;;5105002;23;20969;-82
2021/11/20 15:10:25;;;;;;;32.17;18.97;;;10.40;98.30;;;;;;5102882;23;20447;-82
2021/11/20 15:12:46;;;;;;;33.20;19.70;;;10.40;98.30;;;;;;5092177;23;20429;-82
2021/11/20 15:14:55;;;;;;;29.73;18.37;;;10.40;98.30;;;;;;5104405;23;20424;-82
2021/11/20 15:17:06;;;;;;;29.20;18.00;;;10.40;98.30;;;;;;5104155;23;20439;-82
2021/11/20 15:19:45;;;;;;;29.47;19.10;;;10.40;98.30;;;;;;5095888;23;20420;-83
2021/11/20 15:22:23;;;;;;;25.33;17.37;;;10.40;98.30;;;;;;5095903;23;20948;-82
2021/11/20 15:24:35;;;;;;;36.60;22.13;;;10.40;98.30;;;;;;5094430;23;20433;-82
2021/11/20 15:26:40;;;;;;;30.70;18.60;;;10.40;98.30;;;;;;5104840;23;20528;-82
2021/11/20 15:30:49;;;;;;;31.67;17.80;;;10.40;98.30;;;;;;5114708;23;20446;-77
2021/11/20 15:32:52;;;;;;;23.80;15.57;;;10.30;98.30;;;;;;5123530;23;20430;-77
2021/11/20 15:34:56;;;;;;;30.03;18.63;;;10.30;98.30;;;;;;5115424;23;20437;-77
2021/11/20 15:36:59;;;;;;;31.73;21.27;;;10.30;98.30;;;;;;5114996;23;20437;-77
2021/11/20 15:39:02;;;;;;;33.73;20.93;;;10.30;98.30;;;;;;5090262;23;20985;-77
2021/11/20 15:41:05;;;;;;;29.83;18.63;;;10.30;98.30;;;;;;5090566;23;20488;-77
2021/11/20 15:43:11;;;;;;;35.70;18.87;;;10.30;98.30;;;;;;5090844;23;20458;-77
2021/11/20 15:45:14;;;;;;;26.47;16.20;;;10.30;98.30;;;;;;5098450;23;20423;-77
2021/11/20 15:47:18;;;;;;;30.30;17.57;;;10.30;98.30;;;;;;5091168;23;20432;-79
2021/11/20 15:49:21;;;;;;;26.47;17.00;;;10.30;98.30;;;;;;5093324;23;20869;-79
2021/11/20 15:51:26;;;;;;;33.63;20.80;;;10.30;98.30;;;;;;5099438;23;20474;-80
2021/11/20 15:53:29;;;;;;;25.30;14.70;;;10.20;98.30;;;;;;5100403;23;20499;-79
2021/11/20 15:55:33;;;;;;;26.70;17.90;;;10.20;98.30;;;;;;5101233;23;20428;-79
2021/11/20 15:57:37;;;;;;;30.70;18.83;;;10.20;98.30;;;;;;5101824;23;20451;-80
2021/11/20 15:59:44;;;;;;;36.33;20.60;;;10.20;98.30;;;;;;5102141;23;20451;-79
2021/11/20 16:01:47;;;;;;;24.93;15.00;;;10.20;98.30;;;;;;5102259;23;20454;-79
2021/11/20 16:03:51;;;;;;;26.17;16.57;;;10.20;98.30;;;;;;5103324;23;20431;-80
2021/11/20 16:05:58;;;;;;;28.73;18.07;;;10.20;98.30;;;;;;5103887;23;20489;-79
2021/11/20 16:08:01;;;;;;;30.73;17.50;;;10.20;98.30;;;;;;5103912;23;20455;-79
2021/11/20 16:10:05;;;;;;;27.17;17.30;;;10.20;98.30;;;;;;5103722;23;20453;-79
2021/11/20 16:12:09;;;;;;;24.17;15.07;;;10.20;98.30;;;;;;5103154;23;20520;-79
2021/11/20 16:14:12;;;;;;;27.67;17.50;;;10.20;98.30;;;;;;5104650;23;20451;-79
2021/11/20 16:16:16;;;;;;;29.37;14.80;;;10.10;98.30;;;;;;5104929;23;20431;-79
2021/11/20 16:18:19;;;;;;;27.67;15.73;;;10.10;98.30;;;;;;5095978;23;20455;-79
2021/11/20 16:20:38;;;;;;;22.37;14.70;;;10.20;98.30;;;;;;5095914;23;20416;-79
2021/11/20 16:22:41;;;;;;;26.53;16.47;;;10.10;98.30;;;;;;5096553;23;20431;-79
2021/11/20 16:24:44;;;;;;;33.57;17.00;;;10.10;98.30;;;;;;5095393;23;20432;-79
2021/11/20 16:26:48;;;;;;;30.00;18.47;;;10.10;98.30;;;;;;5096515;23;20987;-79
2021/11/20 16:28:51;;;;;;;28.80;16.73;;;10.10;98.30;;;;;;5103258;23;20442;-79
2021/11/20 16:30:54;;;;;;;28.73;18.50;;;10.10;98.30;;;;;;5103811;23;20471;-80
2021/11/20 16:32:58;;;;;;;20.37;13.90;;;10.10;98.30;;;;;;5098256;23;20520;-80
2021/11/20 16:35:01;;;;;;;28.53;16.63;;;10.10;98.30;;;;;;5097031;23;20431;-82
2021/11/20 16:37:04;;;;;;;29.90;17.30;;;10.10;98.30;;;;;;5096886;23;20443;-79
2021/11/20 16:39:14;;;;;;;28.50;17.10;;;10.10;98.30;;;;;;5105994;23;20478;-80
2021/11/20 16:41:17;;;;;;;29.07;17.20;;;10.10;98.30;;;;;;5089829;23;20434;-79
2021/11/20 16:43:20;;;;;;;25.47;15.60;;;10.10;98.30;;;;;;5096725;23;20428;-79
2021/11/20 16:45:24;;;;;;;25.00;14.77;;;10.00;98.30;;;;;;5107178;23;20427;-79
2021/11/20 16:47:27;;;;;;;33.03;19.17;;;10.00;98.30;;;;;;5106805;23;20444;-79
2021/11/20 16:49:32;;;;;;;35.50;16.80;;;10.10;98.30;;;;;;5099526;23;20686;-79
2021/11/20 16:54:00;;;;;;;30.63;19.00;;;10.10;98.30;;;;;;5100135;23;20415;-79